Goldfield, Nevada Weather observations

Data are for observation ending at time listed.
 Day   Time    Ave.   Ave.  Ave.  Vector   Max.   Stn.    Total    Solar   Ave.  
  of    of     Air    Rel.  Wind   Wind    Wind   Baro.  Precip.   Rad.    Soil  
Year   Day     Temp.  Hum.  Speed  Dir.    Gust   Pres.                    Temp. 
2016   (PST)    F      %     mph   deg.    mph     mb.     in.     W/m2     F   
------------------------------------------------------------------------------
  44    7:20   34.0    74    1.6   269      3.4   835.2    0.00      37    36.0
  44    7:30   34.2    73    1.3   131      2.2   835.2    0.00      52    36.0
  44    7:40   34.8    73    2.0   152      3.3   835.3    0.00      87    35.9
  44    7:50   36.6    69    1.8   165      3.4   835.4    0.00     119    35.9
  44    8:00   38.4    66    1.2   165      1.8   835.5    0.00     146    35.7
  44    8:10   39.2    66    0.3   165      1.3   835.6    0.00     150    35.7
  44    8:20   40.9    63    0.5   301      1.9   835.7    0.00     172    35.8
  44    8:30   41.3    63    2.0   330      3.9   836.0    0.00     153    35.8
  44    8:40   40.8    65    2.3   317      4.6   836.0    0.00     169    35.8
  44    8:50   40.1    63    4.1   338      6.1   836.0    0.00     167    35.9
  44    9:00   39.4    67    3.8   322      5.9   836.0    0.00     186    35.8
  44    9:10   39.9    67    4.4   301      6.2   836.0    0.00     214    35.8
  44    9:20   41.0    66    4.1   309      6.1   836.1    0.00     292    35.9
  44    9:30   41.9    64    3.6   315      6.0   836.2    0.00     346    35.9
  44    9:40   42.7    63    3.3   321      5.0   836.3    0.00     332    36.0
  44    9:50   43.3    59    3.8   325      6.0   836.2    0.00     302    36.1
  44   10:00   44.5    55    5.3   319      8.9   836.1    0.00     370    36.3
  44   10:10   44.7    53    6.7   337     10.3   836.1    0.00     373    36.3
  44   10:20   45.2    52    7.8   332     11.3   836.1    0.00     473    36.6
  44   10:30   46.3    50    9.0   329     11.8   836.1    0.00     441    36.8
  44   10:40   46.4    50    8.9   335     12.5   836.0    0.00     495    36.8
  44   10:50   47.2    50    8.2   333     11.4   836.0    0.00     583    37.1
  44   11:00   48.6    49    6.5   346     10.6   836.0    0.00     649    37.3
  44   11:10   49.7    47    7.6   351     11.2   836.0    0.00     696    37.4
  44   11:20   50.6    46    7.5   354     11.2   835.9    0.00     639    37.6
  44   11:30   51.2    46    7.1   355     10.9   835.9    0.00     603    37.7
  44   11:40   52.0    46    7.6   355     12.8   835.9    0.00     679    37.8
  44   11:50   53.1    44    8.1   357     13.6   835.9    0.00     727    37.9
  44   12:00   54.0    42    8.3   352     14.2   835.9    0.00     711    38.1
  44   12:10   54.1    37    9.7   348     14.9   835.8    0.00     540    38.2
  44   12:20   54.4    36    9.4   355     14.2   835.7    0.00     673    38.3
  44   12:30   54.7    36    8.6   356     13.3   835.6    0.00     666    38.4
  44   12:40   55.4    34   10.6   345     15.6   835.5    0.00     657    38.6
  44   12:50   55.5    33   11.1   339     18.7   835.4    0.00     650    38.8
  44   13:00   56.3    32   11.5   334     20.0   835.2    0.00     641    39.1
  44   13:10   56.6    28   13.2   339     20.1   835.0    0.00     632    39.4
  44   13:20   56.4    30   12.2   341     19.0   834.9    0.00     620    39.6
  44   13:30   56.5    30   13.0   334     18.6   834.8    0.00     604    39.9
  44   13:40   57.1    29   13.4   328     19.3   834.8    0.00     588    40.2
  44   13:50   57.8    27   13.5   330     21.7   834.6    0.00     570    40.4
  44   14:00   58.1    20   16.1   332     22.4   834.5    0.00     555    40.6
  44   14:10   58.5    18   16.5   330     22.1   834.3    0.00     536    40.8
  44   14:20   58.6    20   16.0   327     21.9   834.2    0.00     515    41.1
  44   14:30   58.7    18   15.3   328     22.8   834.2    0.00     492    41.2
  44   14:40   59.0    17   15.1   328     22.1   834.2    0.00     467    41.4
  44   14:50   58.6    18   14.7   330     21.2   834.1    0.00     442    41.5
  44   15:00   58.8    19   13.7   329     18.0   834.0    0.00     415    41.6
  44   15:10   58.8    20   13.0   332     20.0   834.1    0.00     386    41.8
  44   15:20   58.7    19   14.1   327     20.2   834.1    0.00     356    42.0
  44   15:30   59.0    18   14.7   327     21.9   834.3    0.00     327    41.9
  44   15:40   58.5    19   14.0   329     19.0   834.5    0.00     296    42.1
  44   15:50   58.7    17   13.9   332     20.2   834.5    0.00     265    42.2
  44   16:00   58.2    18   12.3   336     18.1   834.4    0.00     235    42.3
  44   16:10   57.9    19   10.8   341     16.7   834.3    0.00     205    42.3
  44   16:20   57.7    20    9.4   334     14.9   834.3    0.00     176    42.4
  44   16:30   57.7    18    8.8   336     12.7   834.2    0.00     146    42.5
  44   16:40   57.4    20    7.5   331     10.2   834.3    0.00     109    42.5
  44   16:50   56.7    20    6.9   332     10.4   834.2    0.00      72    42.5
  44   17:00   54.7    25    4.1   311      5.7   834.2    0.00      24    42.5
  44   17:10   51.1    28    4.2   292      7.9   834.2    0.00      15    42.7
  44   17:20   50.1    27    4.5   291      6.9   834.2    0.00      11    42.6
  44   17:30   50.2    25    3.3   276      5.0   834.1    0.00       6    42.7
  44   17:40   49.1    28    2.2   217      3.3   834.1    0.00       3    42.7
  44   17:50   47.9    29    2.4   158      3.9   834.0    0.00       0    42.6
  44   18:00   47.1    31    2.7   146      4.4   834.0    0.00       0    42.6
  44   18:10   45.5    31    4.6   242      9.2   834.0    0.00       0    42.5
  44   18:20   45.8    29    5.9   243      7.7   834.1    0.00       0    42.4
  44   18:30   45.5    29    2.6   244      5.8   834.2    0.00       0    42.4
  44   18:40   45.1    31    1.5    57      3.1   834.4    0.00       0    42.3
  44   18:50   44.4    32    1.6   130      2.1   834.5    0.00       0    42.2
  44   19:00   45.1    30    1.9   176      3.1   834.4    0.00       0    42.1
  44   19:10   45.8    30    3.8   255      5.6   834.3    0.00       0    42.0
  44   19:20   45.7    32    1.6   256      4.5   834.3    0.00       0    41.9
  44   19:30   43.9    34    1.1    58      3.0   834.5    0.00       0    41.8
  44   19:40   43.1    35    1.9    95      2.9   834.7    0.00       0    41.6
  44   19:50   42.8    34    1.1   221      2.9   834.9    0.00       0    41.6
  44   20:00   41.7    38    0.4   109      2.1   835.0    0.00       0    41.4
  44   20:10   40.9    38    2.1   132      3.6   834.9    0.00       0    41.3
  44   20:20   40.9    37    1.6   117      5.0   835.0    0.00       0    41.2
  44   20:30   42.4    34    5.1   300      9.2   835.2    0.00       0    41.1
  44   20:40   43.6    31    5.6   294      8.0   835.1    0.00       0    41.0
  44   20:50   43.6    31    6.2   294      8.8   835.2    0.00       0    41.0
  44   21:00   44.4    29    6.5   296     10.0   835.4    0.00       0    40.7
  44   21:10   43.4    32    6.8   302      9.6   835.6    0.00       0    40.6
  44   21:20   43.2    32    6.1   300     11.4   835.8    0.00       0    40.6
  44   21:30   43.1    32    5.8   296      8.0   835.8    0.00       0    40.5
  44   21:40   42.5    33    4.6   304      6.2   835.8    0.00       0    40.3
  44   21:50   41.7    34    2.1   310      4.2   835.8    0.00       0    40.2
  44   22:00   40.0    38    1.4   116      2.3   835.7    0.00       0    40.2
  44   22:10   39.3    39    1.8   130      2.9   835.7    0.00       0    40.0
  44   22:20   39.1    38    1.1   318      2.9   835.7    0.00       0    39.9
  44   22:30   39.4    36    2.5   323      5.6   835.7    0.00       0    39.8
  44   22:40   39.4    37    4.2   320      5.4   835.8    0.00       0    39.7
  44   22:50   38.6    40    5.3   312      7.6   835.7    0.00       0    39.7
  44   23:00   39.4    41    5.5   297      7.5   835.7    0.00       0    39.5
  44   23:10   40.5    38    3.8   294      5.6   835.6    0.00       0    39.4
  44   23:20   40.9    38    1.6   308      3.9   835.4    0.00       0    39.3
  44   23:30   39.3    41    1.5    90      2.2   835.3    0.00       1    39.1
  44   23:40   37.2    45    1.5   135      2.0   835.3    0.00       0    39.1
  44   23:50   37.0    44    1.7   186      2.3   835.3    0.00       0    39.0
  45    0:00   36.8    43    2.5   252      3.2   835.3    0.00       0    39.0
  45    0:10   37.1    41    1.8   290      4.7   835.1    0.00       0    38.9
  45    0:20   37.2    43    3.2   297      5.1   835.1    0.00       1    38.7
  45    0:30   36.6    45    1.0   298      2.5   835.1    0.00       0    38.6
  45    0:40   36.4    46    1.9   164      3.0   835.2    0.00       0    38.5
  45    0:50   36.4    46    0.7   228      1.8   835.5    0.00       0    38.4
  45    1:00   36.0    46    3.2   298      5.6   835.4    0.00       0    38.2
  45    1:10   36.2    47    4.5   295      6.4   835.3    0.00       0    38.2
  45    1:20   35.7    49    0.6   307      3.3   835.3    0.00       0    38.1
  45    1:30   34.9    51    0.7   152      2.3   835.2    0.00       0    38.0
  45    1:40   34.4    52    0.6   142      1.6   835.3    0.00       0    38.0
  45    1:50   35.1    51    1.2   142      2.9   835.0    0.00       0    37.8
  45    2:00   35.1    51    2.2   144      2.9   835.0    0.00       0    37.7
  45    2:10   34.8    51    1.1   157      2.4   835.0    0.00       0    37.7
  45    2:20   35.8    48    1.3   242      2.2   835.0    0.00       0    37.6
  45    2:30   37.2    46    1.1   255      1.6   834.9    0.00       0    37.5
  45    2:40   37.4    46    2.4   273      3.4   834.9    0.00       0    37.4
  45    2:50   36.1    50    3.2   264      4.6   834.9    0.00       0    37.3
  45    3:00   36.3    50    1.0   271      2.9   834.6    0.00       0    37.4
  45    3:10   36.8    49    1.7   202      2.2   834.3    0.00       0    37.2
  45    3:20   35.9    51    3.7   192      5.8   833.9    0.00       0    37.2
  45    3:30   36.4    49    5.4   180      7.8   833.5    0.00       0    37.1
  45    3:40   35.7    51    4.3   145      6.6   833.4    0.00       1    37.0
  45    3:50   33.8    55    1.7   129      4.2   833.6    0.00       1    37.0
  45    4:00   33.5    54    1.2   121      2.9   833.5    0.00       0    36.8
  45    4:10   33.8    53    1.2   121      2.8   833.3    0.00       0    36.9
  45    4:20   33.3    54    2.4   279      4.1   833.5    0.00       0    36.8
  45    4:30   34.4    50    2.2   259      3.3   833.5    0.00       0    36.8
  45    4:40   35.9    47    1.9   243      2.6   833.6    0.00       0    36.7
  45    4:50   35.7    48    2.2   233      4.5   833.8    0.00       0    36.7
  45    5:00   35.2    50    0.6   290      1.8   834.1    0.00       0    36.6
  45    5:10   34.3    51    0.9   279      3.0   834.4    0.00       1    36.7
  45    5:20   35.0    50    3.5   274      5.0   834.5    0.00       0    36.6
  45    5:30   35.1    51    3.2   285      4.7   834.6    0.00       0    36.5
  45    5:40   35.1    52    3.4   286      4.7   834.6    0.00       0    36.4
  45    5:50   34.9    54    3.1   288      5.5   834.7    0.00       0    36.4
  45    6:00   34.7    54    2.6   284      4.1   834.5    0.00       0    36.3
  45    6:10   34.0    56    2.0   297      3.6   834.6    0.00       0    36.2
  45    6:20   33.2    58    2.0   267      3.3   834.6    0.00       0    36.3
  45    6:30   34.2    54    2.8   305      4.3   834.6    0.00       0    36.2
  45    6:40   34.4    54    1.6    12      3.1   834.7    0.00       2    36.1
  45    6:50   32.8    59    0.4   356      1.8   834.6    0.00       5    36.1
  45    7:00   32.7    59    0.6   188      3.1   834.6    0.00      16    36.1
  45    7:10   34.8    55    0.4   171      1.9   834.6    0.00      55    36.0

Return to Goldfield, Nevada graphs page.


Western Regional Climate Center,wrcc@dri.edu